createdAt,value
2023-01-19T00:00:46.680Z,41.65
2023-01-19T00:03:17.992Z,41.46
2023-01-19T00:05:45.497Z,40.79
2023-01-19T00:08:15.986Z,41.23
2023-01-19T00:10:44.555Z,40.41
2023-01-19T00:13:11.481Z,42.07
2023-01-19T00:15:38.184Z,41.92
2023-01-19T00:18:05.506Z,42.62
2023-01-19T00:20:32.954Z,42.53
2023-01-19T00:22:59.901Z,41.79
2023-01-19T00:25:26.760Z,42.55
2023-01-19T00:27:53.571Z,42.50
2023-01-19T00:30:20.284Z,43.14
2023-01-19T00:32:47.000Z,43.21
2023-01-19T00:35:13.735Z,44.06
2023-01-19T00:37:40.380Z,42.55
2023-01-19T00:40:07.807Z,42.89
2023-01-19T00:42:40.277Z,42.87
2023-01-19T00:45:23.409Z,43.18
2023-01-19T00:47:57.009Z,41.79
2023-01-19T00:50:25.497Z,41.78
2023-01-19T00:52:54.205Z,42.49
2023-01-19T00:55:21.714Z,41.91
2023-01-19T00:57:49.067Z,42.71
2023-01-19T01:00:19.772Z,42.95
2023-01-19T01:02:47.250Z,42.50
2023-01-19T01:05:13.996Z,42.90
2023-01-19T01:07:41.659Z,41.76
2023-01-19T01:10:09.399Z,40.88
2023-01-19T01:12:37.147Z,41.73
2023-01-19T01:15:05.482Z,41.66
2023-01-19T01:17:32.128Z,40.84
2023-01-19T01:19:59.023Z,41.97
2023-01-19T01:22:25.840Z,41.57
2023-01-19T01:24:52.528Z,41.24
2023-01-19T01:27:19.194Z,40.21
2023-01-19T01:29:48.653Z,39.97
2023-01-19T01:32:16.777Z,40.66
2023-01-19T01:34:43.918Z,40.60
2023-01-19T01:37:10.597Z,40.84
2023-01-19T01:39:37.451Z,42.46
2023-01-19T01:42:18.283Z,41.80
2023-01-19T01:44:50.049Z,40.85
2023-01-19T01:47:28.036Z,41.14
2023-01-19T01:50:11.103Z,41.59
2023-01-19T01:53:06.941Z,41.51
2023-01-19T01:55:34.852Z,41.04
2023-01-19T01:58:04.342Z,40.79
2023-01-19T02:00:54.417Z,40.56
2023-01-19T02:03:23.661Z,40.63
2023-01-19T02:05:52.139Z,40.23
2023-01-19T02:08:44.165Z,39.20
2023-01-19T02:11:30.390Z,38.78
2023-01-19T02:13:57.596Z,38.38
2023-01-19T02:16:24.444Z,38.24
2023-01-19T02:18:51.222Z,39.00
2023-01-19T02:21:45.627Z,41.05
2023-01-19T02:24:13.029Z,40.68
2023-01-19T02:26:48.310Z,39.23
2023-01-19T02:29:17.763Z,38.88
2023-01-19T02:31:47.937Z,38.79
2023-01-19T02:34:19.969Z,37.67
2023-01-19T02:36:52.164Z,38.56
2023-01-19T02:39:22.749Z,38.20
2023-01-19T02:41:54.657Z,37.88
2023-01-19T02:44:23.537Z,38.24
2023-01-19T02:46:53.121Z,38.86
2023-01-19T02:49:19.759Z,39.39
2023-01-19T02:51:46.796Z,39.61
2023-01-19T02:54:17.487Z,38.97
2023-01-19T02:57:11.309Z,39.79
2023-01-19T02:59:49.658Z,40.11
2023-01-19T03:02:38.081Z,39.36
2023-01-19T03:05:22.148Z,39.23
2023-01-19T03:08:03.657Z,38.47
2023-01-19T03:10:49.915Z,40.28
2023-01-19T03:13:26.485Z,39.46
2023-01-19T03:16:05.553Z,39.57
2023-01-19T03:18:36.110Z,39.15
2023-01-19T03:21:07.287Z,38.93
2023-01-19T03:23:36.571Z,38.81
2023-01-19T03:26:07.130Z,38.52
2023-01-19T03:28:35.751Z,39.58
2023-01-19T03:31:25.291Z,38.92
2023-01-19T03:33:56.911Z,38.39
2023-01-19T03:36:49.241Z,38.75
2023-01-19T03:39:21.729Z,40.17
2023-01-19T03:41:52.445Z,38.55
2023-01-19T03:44:19.110Z,38.87
2023-01-19T03:46:48.060Z,39.13
2023-01-19T03:49:14.745Z,38.21
2023-01-19T03:51:41.999Z,37.62
2023-01-19T03:54:11.101Z,37.34
2023-01-19T03:56:37.779Z,37.41
2023-01-19T03:59:07.415Z,38.51
2023-01-19T04:01:34.120Z,39.28
2023-01-19T04:04:01.081Z,38.19
2023-01-19T04:06:28.239Z,37.97
2023-01-19T04:08:55.094Z,38.76
2023-01-19T04:11:21.881Z,37.08
2023-01-19T04:13:48.610Z,35.92
2023-01-19T04:16:20.050Z,36.63
2023-01-19T04:18:47.207Z,37.38
2023-01-19T04:21:13.856Z,36.42
2023-01-19T04:23:40.612Z,37.15
2023-01-19T04:26:08.596Z,37.10
2023-01-19T04:28:37.184Z,37.47
2023-01-19T04:31:05.228Z,37.33
2023-01-19T04:33:32.301Z,36.90
2023-01-19T04:35:59.288Z,37.19
2023-01-19T04:38:26.498Z,37.80
2023-01-19T04:40:54.190Z,38.16
2023-01-19T04:43:21.389Z,37.92
2023-01-19T04:45:49.166Z,36.95
2023-01-19T04:48:18.617Z,37.42
2023-01-19T04:50:45.632Z,37.72
2023-01-19T04:53:13.802Z,37.30
2023-01-19T04:55:40.912Z,37.47
2023-01-19T04:58:07.754Z,37.30
2023-01-19T05:00:34.471Z,37.31
2023-01-19T05:03:02.692Z,35.68
2023-01-19T05:05:29.915Z,37.04
2023-01-19T05:07:56.682Z,37.17
2023-01-19T05:10:23.946Z,37.85
2023-01-19T05:12:51.310Z,37.92
2023-01-19T05:15:18.329Z,37.22
2023-01-19T05:17:45.160Z,37.17
2023-01-19T05:20:15.738Z,37.07
2023-01-19T05:22:43.042Z,36.99
2023-01-19T05:25:09.933Z,37.04
2023-01-19T05:27:37.447Z,37.74
2023-01-19T05:30:05.523Z,37.50
2023-01-19T05:32:32.173Z,37.52
2023-01-19T05:34:58.826Z,37.98
2023-01-19T05:37:25.721Z,36.96
2023-01-19T05:39:52.813Z,37.57
2023-01-19T05:42:20.896Z,37.33
2023-01-19T05:44:47.575Z,37.44
2023-01-19T05:47:14.205Z,37.74
2023-01-19T05:49:40.864Z,37.58
2023-01-19T05:52:07.566Z,36.83
2023-01-19T05:54:34.314Z,36.89
2023-01-19T05:57:02.216Z,36.91
2023-01-19T05:59:28.801Z,37.29
2023-01-19T06:01:55.740Z,37.29
2023-01-19T06:04:22.468Z,37.06
2023-01-19T06:06:50.325Z,36.96
2023-01-19T06:09:17.552Z,36.55
2023-01-19T06:11:45.259Z,36.55
2023-01-19T06:14:12.493Z,37.36
2023-01-19T06:16:39.136Z,37.29
2023-01-19T06:19:05.965Z,37.28
2023-01-19T06:21:33.313Z,36.66
2023-01-19T06:24:00.111Z,36.60
2023-01-19T06:26:26.712Z,36.81
2023-01-19T06:28:53.312Z,37.04
2023-01-19T06:31:20.030Z,36.84
2023-01-19T06:33:47.255Z,36.58
2023-01-19T06:36:13.831Z,36.95
2023-01-19T06:38:40.408Z,36.65
2023-01-19T06:41:07.142Z,37.11
2023-01-19T06:43:33.837Z,36.86
2023-01-19T06:46:00.829Z,36.56
2023-01-19T06:48:27.995Z,36.33
2023-01-19T06:50:54.862Z,35.57
2023-01-19T06:53:22.430Z,35.18
2023-01-19T06:55:49.109Z,34.27
2023-01-19T06:58:15.917Z,34.63
2023-01-19T07:00:43.227Z,35.21
2023-01-19T07:03:19.788Z,34.18
2023-01-19T07:05:46.758Z,34.28
2023-01-19T07:08:15.497Z,34.37
2023-01-19T07:11:23.584Z,35.70
2023-01-19T07:13:28.712Z,35.60
2023-01-19T07:15:55.590Z,35.22
2023-01-19T07:18:22.234Z,34.69
2023-01-19T07:20:49.362Z,34.08
2023-01-19T07:23:16.504Z,35.07
2023-01-19T07:25:46.569Z,35.33
2023-01-19T07:28:15.753Z,34.33
2023-01-19T07:30:46.621Z,33.98
2023-01-19T07:33:13.325Z,34.07
2023-01-19T07:35:39.971Z,33.98
2023-01-19T07:38:06.539Z,33.04
2023-01-19T07:40:33.810Z,33.60
2023-01-19T07:43:00.663Z,33.66
2023-01-19T07:45:28.048Z,34.16
2023-01-19T07:47:54.900Z,33.35
2023-01-19T07:50:24.596Z,33.26
2023-01-19T07:52:53.581Z,33.60
2023-01-19T07:55:21.206Z,32.71
2023-01-19T07:57:52.006Z,32.66
2023-01-19T08:00:21.923Z,32.76
2023-01-19T08:02:52.173Z,32.96
2023-01-19T08:05:19.974Z,33.05
2023-01-19T08:07:47.391Z,32.97
2023-01-19T08:10:15.487Z,31.99
2023-01-19T08:12:42.691Z,32.73
2023-01-19T08:15:12.257Z,32.77
2023-01-19T08:17:38.802Z,33.00
2023-01-19T08:20:06.698Z,32.08
2023-01-19T08:22:33.325Z,32.67
2023-01-19T08:24:59.949Z,32.47
2023-01-19T08:27:26.681Z,31.76
2023-01-19T08:29:54.451Z,31.91
2023-01-19T08:32:21.230Z,30.89
2023-01-19T08:34:47.896Z,31.48
2023-01-19T08:37:14.499Z,30.50
2023-01-19T08:39:41.082Z,31.94
2023-01-19T08:42:07.665Z,32.37
2023-01-19T08:44:34.212Z,31.93
2023-01-19T08:47:00.903Z,31.16
2023-01-19T08:49:27.479Z,31.18
2023-01-19T08:51:54.063Z,31.55
2023-01-19T08:54:21.875Z,32.04
2023-01-19T08:56:48.613Z,31.28
2023-01-19T08:59:15.254Z,31.04
2023-01-19T09:01:42.103Z,31.26
2023-01-19T09:04:10.651Z,30.98
2023-01-19T09:06:37.328Z,31.60
2023-01-19T09:09:04.320Z,31.93
2023-01-19T09:11:31.004Z,31.73
2023-01-19T09:13:57.621Z,32.46
2023-01-19T09:16:27.083Z,32.46
2023-01-19T09:18:54.226Z,31.26
2023-01-19T09:21:20.916Z,30.61
2023-01-19T09:23:49.176Z,30.76
2023-01-19T09:26:15.980Z,31.93
2023-01-19T09:28:42.539Z,32.40
2023-01-19T09:31:09.790Z,32.40
2023-01-19T09:33:36.522Z,32.34
2023-01-19T09:36:05.927Z,31.79
2023-01-19T09:38:33.159Z,31.66
2023-01-19T09:41:00.850Z,31.23
2023-01-19T09:43:47.520Z,30.58
2023-01-19T09:46:33.547Z,32.11
2023-01-19T09:49:06.734Z,30.23
2023-01-19T09:51:38.433Z,30.63
2023-01-19T09:54:17.399Z,30.10
2023-01-19T09:56:46.081Z,30.58
2023-01-19T09:59:25.504Z,30.48
2023-01-19T11:32:49.729Z,30.79
2023-01-19T12:02:23.065Z,29.81
2023-01-19T12:04:51.539Z,31.44
2023-01-19T12:07:25.999Z,30.37
2023-01-19T12:09:58.814Z,30.85
2023-01-19T12:12:33.072Z,29.66
2023-01-19T12:15:19.343Z,29.44
2023-01-19T12:17:49.782Z,31.05
2023-01-19T12:20:25.331Z,29.26
2023-01-19T12:23:00.413Z,29.15
2023-01-19T12:26:03.457Z,28.86
2023-01-19T12:28:37.125Z,28.53
2023-01-19T12:31:04.089Z,30.13
2023-01-19T12:33:38.786Z,28.99
2023-01-19T12:36:17.366Z,28.88
2023-01-19T12:38:54.053Z,28.61
2023-01-19T12:41:26.380Z,29.72
2023-01-19T12:44:11.039Z,29.79
2023-01-19T12:46:41.282Z,29.26
2023-01-19T12:49:27.841Z,28.43
2023-01-19T12:52:13.109Z,28.37
2023-01-19T12:54:55.214Z,29.11
2023-01-19T12:57:33.277Z,29.40
2023-01-19T13:00:23.045Z,29.52
2023-01-19T13:02:54.063Z,29.21
2023-01-19T13:05:33.549Z,29.10
2023-01-19T13:08:03.681Z,29.86
2023-01-19T13:11:16.405Z,30.52
2023-01-19T13:13:48.514Z,29.54
2023-01-19T13:16:25.119Z,29.97
2023-01-19T13:19:06.743Z,29.50
2023-01-19T13:21:35.786Z,29.40
2023-01-19T13:24:05.859Z,30.35
2023-01-19T13:26:33.422Z,30.87
2023-01-19T13:29:15.837Z,30.90
2023-01-19T13:31:49.109Z,31.00
2023-01-19T13:34:21.143Z,31.23
2023-01-19T13:36:52.915Z,31.44
2023-01-19T13:39:37.887Z,31.29
2023-01-19T13:42:13.286Z,30.21
2023-01-19T13:45:02.148Z,30.79
2023-01-19T13:47:44.707Z,30.36
2023-01-19T13:50:35.227Z,30.79
2023-01-19T13:53:02.833Z,29.98
2023-01-19T13:55:30.936Z,29.85
2023-01-19T13:57:58.120Z,31.06
2023-01-19T14:00:27.529Z,30.93
2023-01-19T14:02:55.988Z,30.41
2023-01-19T14:05:31.717Z,32.04
2023-01-19T14:08:04.138Z,30.10
2023-01-19T14:10:31.723Z,30.66
2023-01-19T14:13:00.198Z,31.23
2023-01-19T14:15:28.453Z,31.83
2023-01-19T14:18:10.124Z,30.71
2023-01-19T14:20:37.251Z,31.05
2023-01-19T14:23:05.016Z,32.72
2023-01-19T14:25:36.545Z,31.13
2023-01-19T14:28:45.540Z,31.27
2023-01-19T14:31:28.103Z,31.90
2023-01-19T14:33:55.924Z,31.21
2023-01-19T14:36:33.731Z,31.37
2023-01-19T14:39:03.884Z,31.39
2023-01-19T14:41:39.195Z,31.54
2023-01-19T14:44:18.481Z,30.64
2023-01-19T14:46:47.999Z,30.41
2023-01-19T14:49:29.357Z,30.56
2023-01-19T14:51:57.086Z,30.51
2023-01-19T14:54:40.993Z,30.18
2023-01-19T14:57:13.177Z,30.74
2023-01-19T14:59:40.874Z,30.80
2023-01-19T15:02:07.790Z,30.56
2023-01-19T15:04:34.778Z,30.72
2023-01-19T15:07:01.362Z,30.68
2023-01-19T15:09:27.997Z,30.89
2023-01-19T15:11:54.667Z,30.97
2023-01-19T15:14:21.950Z,31.01
2023-01-19T15:16:49.164Z,31.21
2023-01-19T15:19:17.877Z,31.62
2023-01-19T15:21:46.861Z,31.66
2023-01-19T15:24:16.349Z,32.48
2023-01-19T15:26:44.433Z,32.11
2023-01-19T15:29:23.322Z,31.93
2023-01-19T15:31:50.465Z,32.57
2023-01-19T15:34:17.180Z,32.86
2023-01-19T15:36:43.946Z,32.84
2023-01-19T15:39:11.299Z,33.73
2023-01-19T15:41:41.011Z,34.27
2023-01-19T15:44:10.792Z,33.37
2023-01-19T15:46:38.108Z,32.58
2023-01-19T15:49:05.814Z,32.48
2023-01-19T15:51:33.021Z,32.52
2023-01-19T15:53:59.725Z,33.97
2023-01-19T15:56:29.197Z,34.25
2023-01-19T15:58:58.757Z,35.05
2023-01-19T16:01:33.910Z,34.86
2023-01-19T16:04:04.087Z,35.81
2023-01-19T16:06:31.423Z,35.67
2023-01-19T16:09:01.893Z,35.59
2023-01-19T16:11:30.999Z,36.66
2023-01-19T16:13:57.909Z,36.04
2023-01-19T16:16:26.280Z,36.17
2023-01-19T16:18:53.047Z,37.13
2023-01-19T16:21:19.785Z,40.73
2023-01-19T16:23:46.478Z,42.91
2023-01-19T16:26:32.309Z,53.37
2023-01-19T16:29:08.597Z,57.36
2023-01-19T16:31:36.498Z,59.85
2023-01-19T16:34:03.287Z,58.87
2023-01-19T16:36:32.167Z,58.23
2023-01-19T16:39:01.018Z,56.58
2023-01-19T16:41:28.192Z,58.24
2023-01-19T16:43:57.241Z,60.00
2023-01-19T16:46:26.422Z,60.44
2023-01-19T16:48:53.127Z,63.62
2023-01-19T16:51:20.357Z,64.67
2023-01-19T16:53:49.749Z,62.94
2023-01-19T16:56:17.360Z,64.21
2023-01-19T16:58:44.208Z,62.45
2023-01-19T17:01:14.852Z,64.00
2023-01-19T17:03:42.601Z,64.91
2023-01-19T17:06:11.132Z,63.65
2023-01-19T17:08:38.790Z,65.36
2023-01-19T17:11:13.921Z,66.67
2023-01-19T17:13:40.572Z,65.97
2023-01-19T17:16:08.075Z,64.49
2023-01-19T17:18:35.844Z,64.89
2023-01-19T17:21:08.322Z,65.58
2023-01-19T17:23:38.749Z,66.47
2023-01-19T17:26:05.580Z,64.60
2023-01-19T17:28:32.205Z,64.74
2023-01-19T17:31:05.920Z,66.25
2023-01-19T17:33:33.137Z,67.45
2023-01-19T17:36:22.387Z,64.28
2023-01-19T17:38:50.188Z,62.74
2023-01-19T17:41:19.471Z,62.83
2023-01-19T17:43:46.681Z,63.22
2023-01-19T17:46:13.691Z,62.71
2023-01-19T17:48:40.564Z,65.35
2023-01-19T17:51:09.947Z,66.06
2023-01-19T17:53:38.125Z,65.39
2023-01-19T17:56:05.761Z,66.63
2023-01-19T17:58:32.698Z,66.46
2023-01-19T18:01:08.959Z,66.23
2023-01-19T18:03:35.951Z,66.48
2023-01-19T18:06:02.691Z,65.75
2023-01-19T18:08:29.524Z,68.17
2023-01-19T18:10:57.605Z,67.32
2023-01-19T18:13:24.758Z,69.13
2023-01-19T18:15:51.846Z,68.85
2023-01-19T18:18:18.467Z,73.61
2023-01-19T18:20:45.145Z,72.93
2023-01-19T18:23:12.105Z,72.33
2023-01-19T18:25:39.815Z,70.86
2023-01-19T18:28:07.204Z,68.53
2023-01-19T18:30:37.283Z,71.99
2023-01-19T18:33:04.512Z,74.43
2023-01-19T18:35:31.096Z,74.13
2023-01-19T18:37:58.641Z,73.11
2023-01-19T18:40:26.070Z,72.49
2023-01-19T18:42:52.750Z,72.50
2023-01-19T18:45:19.350Z,72.76
2023-01-19T18:47:45.987Z,73.88
2023-01-19T18:50:14.431Z,74.17
2023-01-19T18:52:42.637Z,74.63
2023-01-19T18:55:10.717Z,72.19
2023-01-19T18:57:37.574Z,72.46
2023-01-19T19:00:05.545Z,71.66
2023-01-19T19:02:33.307Z,72.73
2023-01-19T19:05:03.556Z,70.03
2023-01-19T19:07:30.427Z,71.77
2023-01-19T19:09:58.217Z,71.64
2023-01-19T19:12:25.131Z,72.50
2023-01-19T19:14:52.794Z,73.21
2023-01-19T19:17:20.704Z,72.91
2023-01-19T19:19:47.310Z,75.00
2023-01-19T19:22:14.161Z,72.42
2023-01-19T19:24:40.803Z,73.95
2023-01-19T19:27:07.450Z,74.19
2023-01-19T19:29:36.380Z,73.76
2023-01-19T19:32:07.847Z,73.04
2023-01-19T19:34:35.873Z,72.88
2023-01-19T19:37:02.798Z,70.92
2023-01-19T19:39:29.602Z,71.98
2023-01-19T19:41:56.289Z,71.27
2023-01-19T19:44:23.241Z,69.90
2023-01-19T19:46:49.966Z,71.98
2023-01-19T19:49:21.391Z,71.05
2023-01-19T19:51:49.897Z,70.58
2023-01-19T19:54:17.022Z,69.29
2023-01-19T19:56:44.402Z,69.64
2023-01-19T19:59:12.675Z,70.46
2023-01-19T20:01:39.880Z,67.87
2023-01-19T20:04:09.832Z,68.41
2023-01-19T20:06:39.887Z,70.18
2023-01-19T20:09:14.309Z,68.77
2023-01-19T20:11:42.666Z,67.86
2023-01-19T20:14:13.478Z,70.09
2023-01-19T20:16:41.002Z,70.45
2023-01-19T20:19:09.965Z,70.16
2023-01-19T20:21:40.636Z,67.54
2023-01-19T20:24:12.829Z,69.79
2023-01-19T20:26:44.168Z,68.85
2023-01-19T20:29:13.181Z,68.77
2023-01-19T20:31:44.843Z,69.11
2023-01-19T20:34:14.777Z,69.60
2023-01-19T20:36:41.749Z,69.19
2023-01-19T20:39:10.924Z,69.83
2023-01-19T20:41:43.842Z,72.98
2023-01-19T20:44:22.833Z,74.38
2023-01-19T20:46:49.887Z,72.14
2023-01-19T20:49:16.609Z,71.20
2023-01-19T20:51:45.311Z,69.58
2023-01-19T20:54:14.104Z,68.69
2023-01-19T20:56:41.724Z,68.04
2023-01-19T20:59:10.197Z,68.27
2023-01-19T21:01:36.999Z,67.77
2023-01-19T21:04:04.231Z,69.30
2023-01-19T21:06:30.889Z,73.24
2023-01-19T21:08:58.009Z,73.50
2023-01-19T21:11:25.287Z,79.34
2023-01-19T21:13:55.705Z,75.82
2023-01-19T21:16:29.308Z,74.07
2023-01-19T21:18:56.337Z,73.09
2023-01-19T21:21:30.767Z,71.10
2023-01-19T21:23:59.837Z,72.16
2023-01-19T21:26:26.633Z,71.08
2023-01-19T21:28:53.454Z,70.42
2023-01-19T21:31:22.620Z,69.57
2023-01-19T21:33:57.134Z,68.62
2023-01-19T21:36:24.686Z,68.51
2023-01-19T21:38:52.411Z,67.77
2023-01-19T21:41:19.416Z,67.75
2023-01-19T21:43:46.303Z,67.72
2023-01-19T21:46:22.193Z,72.00
2023-01-19T21:48:48.900Z,70.99
2023-01-19T21:51:15.904Z,70.79
2023-01-19T21:53:42.889Z,68.60
2023-01-19T21:56:10.850Z,67.99
2023-01-19T21:58:37.874Z,67.66
2023-01-19T22:01:07.327Z,68.90
2023-01-19T22:03:34.067Z,69.64
2023-01-19T22:06:05.932Z,72.26
2023-01-19T22:08:32.718Z,71.30
2023-01-19T22:11:06.800Z,70.40
2023-01-19T22:13:34.817Z,70.20
2023-01-19T22:16:03.016Z,70.25
2023-01-19T22:18:30.004Z,71.02
2023-01-19T22:20:56.872Z,73.92
2023-01-19T22:23:23.492Z,73.68
2023-01-19T22:25:50.143Z,76.37
2023-01-19T22:28:16.775Z,74.77
2023-01-19T22:30:43.707Z,72.75
2023-01-19T22:33:10.376Z,72.93
2023-01-19T22:35:36.945Z,72.61
2023-01-19T22:38:03.649Z,72.66
2023-01-19T22:40:30.239Z,72.94
2023-01-19T22:42:56.877Z,73.32
2023-01-19T22:45:23.750Z,73.10
2023-01-19T22:47:50.405Z,72.66
2023-01-19T22:50:17.107Z,71.96
2023-01-19T22:52:43.791Z,72.89
2023-01-19T22:55:10.563Z,71.74
2023-01-19T22:57:37.460Z,71.98
2023-01-19T23:00:07.223Z,72.52
2023-01-19T23:02:34.149Z,74.28
2023-01-19T23:05:00.996Z,72.55
2023-01-19T23:07:27.645Z,73.17
2023-01-19T23:09:54.204Z,74.71
2023-01-19T23:12:20.798Z,74.28
2023-01-19T23:14:47.392Z,75.54
2023-01-19T23:17:14.008Z,74.64
2023-01-19T23:19:40.665Z,73.36
2023-01-19T23:22:07.208Z,73.73
2023-01-19T23:24:33.925Z,76.54
2023-01-19T23:27:02.269Z,78.95
2023-01-19T23:29:28.942Z,76.83
2023-01-19T23:31:56.299Z,76.09
2023-01-19T23:34:22.917Z,77.15
2023-01-19T23:36:49.510Z,76.88
2023-01-19T23:39:22.285Z,75.38
2023-01-19T23:41:49.733Z,73.89
2023-01-19T23:44:17.356Z,74.83
2023-01-19T23:46:44.725Z,77.26
2023-01-19T23:49:12.358Z,76.17
2023-01-19T23:51:39.871Z,75.93
2023-01-19T23:54:06.794Z,74.63
2023-01-19T23:56:35.728Z,76.47
2023-01-19T23:59:08.280Z,76.19
